Tiempo atmosférico en la estación meteorológica de Aroche, Huelva (260 m.)



Fecha
DESCASC
Temp. máxima en grados centígrados (hora)
DESCASC
Temp. mínima en grados centígrados (hora)
DESCASC
Temp. media en grados centígrados
DESCASC
Racha de viento máxima en m/sg (hora)
DESCASC
Velocidad máxima media en intervalos de 10 minutos(hora)
DESCASC
Precipitaciones diarias en mm
DESCASC
Precipitaciones de 00:00 a 06:00 en mm
DESCASC
Precipitaciones de 06:00 a 12:00 en mm
DESCASC
Precipitaciones de 12:00 a 18:00 en mm
DESCASC
Precipitaciones de 18:00 a 24:00 en mm
DESCASC
19-01-2020 13.8 (15:50) 7.4 (22:50) 10.6 12.5 (14:50) 7.22 (15:00) 0 0 0 0 0
18-01-2020 16.4 (17:10) 7.1 (00:00) 11.7 13.89 (22:40) 5.83 (23:10) 27.2 0 20.8 6.4 0
17-01-2020 17 (17:10) 6.4 (22:50) 11.7 6.39 (00:30) 3.33 (00:30) 0.6 0.6 0 0 0
16-01-2020 17.5 (15:00) 7.7 (00:00) 12.6 9.17 (13:40) 5.56 (15:20) 0.2 0 0 0 0.2
15-01-2020 15.4 (14:10) 7.8 (00:00) 11.6 7.78 (13:50) 4.44 (13:20) 1 0 0.2 0.6 0.2
14-01-2020 12.7 (15:30) -0.9 (-00:0) 5.9 6.11 (15:50) 3.33 (15:40) 0 0 0 0 0
13-01-2020 14.3 (14:30) -1.9 (-00:0) 6.2 5.83 (15:30) 3.06 (13:50) 0.2 0 0.2 0 0
12-01-2020 15.7 (14:30) -1.2 (-00:0) 7.2 5.83 (15:50) 3.33 (15:50) 0 0 0 0 0
11-01-2020 16.4 (15:50) -0.8 (-00:0) 7.8 5 (12:20) 2.78 (13:40) 0 0 0 0 0
10-01-2020 13.5 (16:30) 1.9 (00:00) 7.7 7.5 (03:20) 4.17 (01:50) 0 0 0 0 0
09-01-2020 15.2 (15:30) -1.6 (-00:0) 6.8 6.11 (16:00) 3.89 (16:00) 0.2 0 0.2 0 0
08-01-2020 17.9 (16:30) -2 (-00:0) 7.9 3.89 (15:30) 2.5 (14:30) 0 0 0 0 0
07-01-2020 18.7 (15:40) -0.7 (-00:0) 9 4.44 (16:10) 3.06 (14:00) 0 0 0 0 0
06-01-2020 18 (16:20) -0.2 (00:00) 8.9 5.56 (17:10) 3.89 (17:20) 0.2 0 0.2 0 0
05-01-2020 16.8 (15:40) 1.5 (00:00) 9.1 4.17 (04:20) 2.22 (13:30) 0 0 0 0 0
04-01-2020 15.3 (15:40) 1.6 (00:00) 8.5 7.78 (12:20) 3.89 (17:00) 0 0 0 0 0
03-01-2020 12.9 (13:30) 3.2 (00:00) 8 6.11 (14:00) 3.06 (14:00) 0 0 0 0 0
02-01-2020 14.9 (14:00) 0.6 (00:00) 7.7 5.56 (14:20) 3.33 (14:20) 0 0 0 0 0
01-01-2020 17.4 (15:10) 1.4 (00:00) 9.4 5 (15:50) 3.33 (15:50) 0.2 0 0.2 0 0
31-12-2019 17.5 (15:30) 0 (00:00) 8.8 4.44 (16:10) 2.78 (16:50) 0.2 0.2 0 0 0
30-12-2019 -- (--) -- (--) -- -- (--) -- (--) -- 0 0 0 --
29-12-2019 20.6 (14:50) 0.8 (00:00) 10.7 4.17 (16:00) 2.78 (15:50) 0 0 0 0 0
28-12-2019 22.6 (16:20) 2.5 (00:00) 12.6 3.33 (17:00) 1.94 (17:30) 0 0 0 0 0
27-12-2019 23.9 (14:30) 5.4 (00:00) 14.6 4.44 (16:50) 2.78 (16:50) 0 0 0 0 0
26-12-2019 20.2 (13:40) 5.5 (00:00) 12.9 7.22 (20:30) 4.44 (15:20) 0 0 0 0 0
25-12-2019 22.6 (13:50) 4.8 (00:00) 13.7 4.44 (14:00) 2.78 (14:30) 0 0 0 0 0
24-12-2019 23.7 (14:30) 5.3 (00:00) 14.5 7.78 (14:00) 4.44 (13:40) 0 0 0 0 0
23-12-2019 -- (--) -- (--) -- -- (--) -- (--) -- -- -- 0 0
22-12-2019 17.6 (16:10) 10.9 (00:00) 14.3 8.61 (16:40) 5 (15:10) -- 0 -- 0 0

Gráficas

Temp. máximas Temp. mínimas Temp. medias Precipitaciones Rachas de viento máximas Velocidades máximas media en intervalos de 10 minutos

Datos horarios

Fecha y hora oficial Temperatura (ºC) Velocidad del viento (km/h) Dirección del viento Racha (km/h) Dirección de racha Precipitación (mm) Presión (hPa) Tendencia (hPa) Humedad (%)
2020-01-20 23:00:00 8.2 14 Este 48 Este 0 -- -- 62
2020-01-20 22:00:00 7.5 13 Nordeste 30 Este 0 -- -- 65
2020-01-20 21:00:00 6.9 15 Nordeste 30 Este 0 -- -- 63
2020-01-20 20:00:00 7 10 Nordeste 35 Este 0 -- -- 61
2020-01-20 19:00:00 7.7 15 Nordeste 39 Nordeste 0 -- -- 57
2020-01-20 18:00:00 8.9 16 Nordeste 43 Nordeste 0 -- -- 53
2020-01-20 17:00:00 8.9 19 Nordeste 51 Este 0 -- -- 53
2020-01-20 16:00:00 9.5 30 Nordeste 54 Nordeste 0 -- -- 53
2020-01-20 15:00:00 9.5 30 Nordeste 55 Nordeste 0 -- -- 51
2020-01-20 14:00:00 9.8 28 Nordeste 54 Este 0 -- -- 45
2020-01-20 13:00:00 9.4 26 Nordeste 48 Norte 0 -- -- 40
2020-01-20 12:00:00 8.6 18 Nordeste 33 Norte 0 -- -- 39
2020-01-20 11:00:00 7.5 16 Nordeste 42 Este 0 -- -- 41
2020-01-20 10:00:00 6.8 22 Nordeste 41 Nordeste 0 -- -- 42
2020-01-20 09:00:00 5.8 22 Nordeste 44 Nordeste 0 -- -- 44
2020-01-20 08:00:00 5.9 15 Nordeste 37 Nordeste 0 -- -- 42
2020-01-20 07:00:00 6.2 19 Nordeste 41 Nordeste 0 -- -- 42
2020-01-20 06:00:00 6.4 22 Nordeste 40 Nordeste 0 -- -- 41
2020-01-20 05:00:00 6.9 28 Nordeste 54 Nordeste 0 -- -- 41
2020-01-20 04:00:00 7.3 23 Nordeste 43 Nordeste 0 -- -- 42
2020-01-20 03:00:00 7.5 22 Nordeste 43 Este 0 -- -- 42
2020-01-20 02:00:00 8.1 21 Nordeste 38 Nordeste 0 -- -- 38
2020-01-20 01:00:00 8 14 Nordeste 39 Este 0 -- -- 44
2020-01-20 00:00:00 7.7 10 Norte 24 Norte 0 -- -- 49
2020-01-19 23:00:00 7.5 3 Nordeste 15 Norte 0 -- -- 54
2020-01-19 22:00:00 8.5 6 Noroeste 15 Norte 0 -- -- 51
2020-01-19 21:00:00 9.4 6 Norte 21 Nordeste 0 -- -- 51
2020-01-19 20:00:00 10.6 11 Norte 28 Norte 0 -- -- 50
2020-01-19 19:00:00 11.4 10 Norte 27 Norte 0 -- -- 52
2020-01-19 18:00:00 13 19 Norte 37 Norte 0 -- -- 49
2020-01-19 17:00:00 13.5 21 Norte 41 Norte 0 -- -- 51
2020-01-19 16:00:00 13.7 18 Norte 43 Nordeste 0 -- -- 53
2020-01-19 15:00:00 13.6 26 Norte 45 Norte 0 -- -- 55
2020-01-19 14:00:00 12.8 20 Norte 37 Noroeste 0 -- -- 64
2020-01-19 13:00:00 12.5 19 Norte 39 Nordeste 0 -- -- 67
2020-01-19 12:00:00 11.7 12 Norte 32 Norte 0 -- -- 76
2020-01-19 11:00:00 9.9 17 Norte 34 Noroeste 0 -- -- 84
2020-01-19 10:00:00 9.2 15 Norte 31 Noroeste 0 -- -- 90
2020-01-19 09:00:00 9.2 8 Noroeste 32 Norte 0 -- -- 91
2020-01-19 08:00:00 9.1 17 Noroeste 35 Noroeste 0 -- -- 92
2020-01-19 07:00:00 9.2 19 Noroeste 38 Oeste 0 -- -- 90
2020-01-19 06:00:00 9.2 16 Noroeste 31 Noroeste 0 -- -- 89
2020-01-19 05:00:00 9.2 15 Noroeste 36 Noroeste 0 -- -- 87
2020-01-19 04:00:00 9.3 9 Noroeste 29 Norte 0 -- -- 85
2020-01-19 03:00:00 9.9 15 Noroeste 29 Oeste 0 -- -- 83
2020-01-19 02:00:00 11 16 Noroeste 34 Oeste 0 -- -- 86
2020-01-19 01:00:00 11.3 17 Oeste 30 Oeste 0 -- -- 90
2020-01-19 00:00:00 11.1 11 Oeste 39 Oeste 0 -- -- 93
2020-01-18 23:00:00 12.4 20 Oeste 50 Noroeste 0 -- -- 88
2020-01-18 22:00:00 12.3 14 Oeste 26 Oeste 0 -- -- 95
2020-01-18 21:00:00 12.4 12 Oeste 22 Sudoeste 0 -- -- 100
2020-01-18 20:00:00 10.5 0 Calma 8 Nordeste 0 -- -- 97
2020-01-18 19:00:00 12.3 4 Nordeste 9 Oeste 0 -- -- 92
2020-01-18 18:00:00 14.5 7 Oeste 12 Oeste 0 -- -- 91
2020-01-18 17:00:00 16 5 Oeste 12 Sudoeste 0 -- -- 92
2020-01-18 16:00:00 14.8 5 Oeste 9 Oeste 0.4 -- -- 100
2020-01-18 15:00:00 13.7 0 Calma 7 Nordeste 1.6 -- -- 100
2020-01-18 14:00:00 13.2 4 Este 9 Este 2 -- -- 100
2020-01-18 13:00:00 12.7 6 Este 12 Este 2.4 -- -- 100
2020-01-18 12:00:00 12.5 3 Este 8 Este 2 -- -- 100
2020-01-18 11:00:00 12.2 4 Este 9 Sudeste 3 -- -- 100
2020-01-18 10:00:00 11.7 3 Este 10 Sudeste 4.4 -- -- 100
2020-01-18 09:00:00 11.4 3 Sudeste 10 Este 10 -- -- 99
2020-01-18 08:00:00 11.5 4 Norte 18 Sur 1 -- -- 98
2020-01-18 07:00:00 10.2 0 Calma 6 Oeste 0.4 -- -- 99
2020-01-18 06:00:00 9.4 3 Sudeste 8 Este 0 -- -- 99
2020-01-18 05:00:00 8.5 2 Sur 6 Sur 0 -- -- 100
2020-01-18 04:00:00 7.9 0 Calma 4 Nordeste 0 -- -- 99
2020-01-18 03:00:00 7.9 2 Oeste 7 Nordeste 0 -- -- 98
2020-01-18 02:00:00 7.7 0 Calma 5 Este 0 -- -- 98
2020-01-18 01:00:00 7.9 2 Sudeste 6 Sur 0 -- -- 99
2020-01-18 00:00:00 7.1 3 Nordeste 5 Sudeste 0 -- -- 98
2020-01-17 23:00:00 6.4 3 Nordeste 6 Nordeste 0 -- -- 97
2020-01-17 22:00:00 7.2 2 Sudeste 5 Sur 0 -- -- 93
2020-01-17 21:00:00 8.9 2 Este 5 Este 0 -- -- 90
2020-01-17 20:00:00 10.5 3 Nordeste 12 Nordeste 0 -- -- 84
2020-01-17 19:00:00 12.9 2 Nordeste 8 Nordeste 0 -- -- 75
2020-01-17 18:00:00 16.2 4 Norte 11 Norte 0 -- -- 58
2020-01-17 17:00:00 16.8 5 Norte 15 Norte 0 -- -- 57
2020-01-17 16:00:00 16.7 9 Norte 15 Norte 0 -- -- 59
2020-01-17 15:00:00 16.5 5 Oeste 12 Noroeste 0 -- -- 65
2020-01-17 14:00:00 15.9 5 Sudoeste 10 Noroeste 0 -- -- 72
2020-01-17 13:00:00 15.1 5 Sur 9 Sur 0 -- -- 76
2020-01-17 12:00:00 13.3 3 Sur 7 Sur 0 -- -- 85
2020-01-17 11:00:00 10.8 0 Calma 4 Noroeste 0 -- -- 99
2020-01-17 10:00:00 9.3 0 Calma 8 Norte 0 -- -- 100
2020-01-17 09:00:00 8.2 3 Nordeste 6 Norte 0 -- -- 100
2020-01-17 08:00:00 8.7 2 Nordeste 5 Norte 0 -- -- 100
2020-01-17 07:00:00 9.2 3 Nordeste 4 Este 0 -- -- 99
2020-01-17 06:00:00 10 0 Calma 4 Noroeste 0 -- -- 99
2020-01-17 05:00:00 11 0 Calma 3 Noroeste 0 -- -- 98
2020-01-17 04:00:00 11.8 0 Calma 3 Sur 0 -- -- 98
2020-01-17 03:00:00 12.1 0 Calma 5 Noroeste 0.2 -- -- 97
2020-01-17 02:00:00 12.3 4 Sur 13 Sudoeste 0.4 -- -- 96
2020-01-17 01:00:00 12.9 6 Sudoeste 23 Sudoeste 0 -- -- 90
2020-01-17 00:00:00 12.8 8 Sur 23 Sudeste 0.2 -- -- 90
2020-01-16 23:00:00 12.9 10 Sur 22 Sur 0 -- -- 88
2020-01-16 22:00:00 13.1 12 Sur 32 Sur 0 -- -- 87
2020-01-16 21:00:00 12.7 14 Sur 30 Sudoeste 0 -- -- 86
2020-01-16 20:00:00 12.6 11 Sur 23 Sur 0 -- -- 83
2020-01-16 19:00:00 12.9 5 Sudeste 22 Sur 0 -- -- 75
2020-01-16 18:00:00 14.1 12 Sur 26 Sur 0 -- -- 65
2020-01-16 17:00:00 15.8 16 Sur 32 Sur 0 -- -- 55
2020-01-16 16:00:00 16.9 19 Sur 32 Sur 0 -- -- 53
2020-01-16 15:00:00 17.5 11 Sur 32 Sur 0 -- -- 56
2020-01-16 14:00:00 16.7 13 Sur 33 Sur 0 -- -- 64
2020-01-16 13:00:00 15.8 15 Sur 28 Sur 0 -- -- 67
2020-01-16 12:00:00 15.1 9 Sudeste 22 Sudeste 0 -- -- 74
2020-01-16 11:00:00 13.8 11 Sudeste 23 Sudeste 0 -- -- 83
2020-01-16 10:00:00 11.9 9 Este 14 Este 0 -- -- 90
2020-01-16 09:00:00 11.2 8 Nordeste 18 Este 0 -- -- 94
2020-01-16 08:00:00 11.4 9 Este 14 Este 0 -- -- 93
2020-01-16 07:00:00 10.8 7 Este 11 Nordeste 0 -- -- 98
2020-01-16 06:00:00 10.3 5 Este 9 Sudeste 0 -- -- 100
2020-01-16 05:00:00 8.2 5 Este 8 Este 0 -- -- 100
2020-01-16 04:00:00 8.8 0 Calma 10 Este 0 -- -- 99
2020-01-16 03:00:00 10.1 5 Este 10 Este 0 -- -- 100
2020-01-16 02:00:00 9.7 0 Calma 4 Sur 0 -- -- 100
2020-01-16 01:00:00 9.7 2 Noroeste 10 Este 0 -- -- 98
2020-01-16 00:00:00 10 4 Este 7 Este 0 -- -- 100
2020-01-15 23:00:00 10.4 0 Calma 4 Nordeste 0 -- -- 97
2020-01-15 22:00:00 12 0 Calma 8 Este 0 -- -- 96
2020-01-15 21:00:00 12.6 5 Este 9 Este 0.2 -- -- 97
2020-01-15 20:00:00 12.7 6 Este 15 Este 0 -- -- 94
2020-01-15 19:00:00 13 5 Este 10 Sudeste 0 -- -- 93
2020-01-15 18:00:00 13.3 8 Este 13 Este 0 -- -- 92
2020-01-15 17:00:00 13.6 4 Sudeste 15 Sudeste 0 -- -- 92
2020-01-15 16:00:00 14.1 8 Sudeste 23 Sur 0.6 -- -- 91
2020-01-15 15:00:00 14.7 9 Sur 26 Sur 0 -- -- 85
2020-01-15 14:00:00 15 12 Sur 28 Sur 0 -- -- 85
2020-01-15 13:00:00 14.5 16 Sur 28 Sur 0 -- -- 86
2020-01-15 12:00:00 13.3 9 Sur 27 Sur 0.2 -- -- 90
2020-01-15 11:00:00 13 13 Sudeste 25 Sudeste 0 -- -- 87
2020-01-15 10:00:00 12.3 13 Sudeste 24 Sudeste 0 -- -- 89
2020-01-15 09:00:00 11.3 9 Sudeste 26 Sur 0 -- -- 89
2020-01-15 08:00:00 11.1 9 Sudeste 23 Sudeste 0 -- -- 88
2020-01-15 07:00:00 10.7 9 Sudeste 19 Sudeste 0 -- -- 86
2020-01-15 06:00:00 10.5 5 Sudeste 22 Sudeste 0 -- -- 85
2020-01-15 05:00:00 10.5 12 Sudeste 23 Sudeste 0 -- -- 85
2020-01-15 04:00:00 9.9 10 Sudeste 23 Sudeste 0 -- -- 86
2020-01-15 03:00:00 8.1 2 Sur 13 Sur 0 -- -- 92
2020-01-15 02:00:00 9.4 4 Sudeste 15 Sudeste 0 -- -- 87
2020-01-15 01:00:00 8.6 3 Este 11 Este 0 -- -- 91
2020-01-15 00:00:00 7.8 0 Calma 11 Este 0 -- -- 90
2020-01-14 23:00:00 8.8 6 Este 10 Este 0 -- -- 89
2020-01-14 22:00:00 10 4 Este 15 Sudeste 0 -- -- 84
2020-01-14 21:00:00 10.3 5 Sudeste 12 Este 0 -- -- 85
2020-01-14 20:00:00 10.4 3 Este 15 Sudeste 0 -- -- 82
2020-01-14 19:00:00 11.2 9 Sudeste 18 Sur 0 -- -- 79
2020-01-14 18:00:00 11.4 5 Este 15 Sudeste 0 -- -- 73
2020-01-14 17:00:00 12.2 7 Sudeste 19 Sur 0 -- -- 70
2020-01-14 16:00:00 12.5 9 Sur 22 Sur 0 -- -- 68
2020-01-14 15:00:00 12.2 9 Sudeste 16 Sudeste 0 -- -- 67
2020-01-14 14:00:00 10.9 2 Sur 18 Sur 0 -- -- 70
2020-01-14 13:00:00 11.4 9 Sur 18 Sur 0 -- -- 69
2020-01-14 12:00:00 10.3 4 Oeste 11 Este 0 -- -- 80
2020-01-14 11:00:00 6.2 3 Norte 9 Este 0 -- -- 99
2020-01-14 10:00:00 2.5 4 Este 7 Este 0 -- -- 100
2020-01-14 09:00:00 -0.9 0 Calma 5 Este 0 -- -- 99
2020-01-14 08:00:00 -0.3 0 Calma 5 Sudeste 0 -- -- 99
2020-01-14 07:00:00 0 3 Sudeste 7 Sudeste 0 -- -- 99
2020-01-14 06:00:00 -0.5 3 Este 10 Este 0 -- -- 99
2020-01-14 05:00:00 -0.8 0 Calma 6 Sudeste 0 -- -- 98
2020-01-14 04:00:00 0.3 3 Este 5 Este 0 -- -- 98
2020-01-14 03:00:00 -0.6 3 Este 7 Sudeste 0 -- -- 99
2020-01-14 02:00:00 0.3 3 Este 5 Sudeste 0 -- -- 98
2020-01-14 01:00:00 0.6 3 Sudeste 5 Sudeste 0 -- -- 97
2020-01-14 00:00:00 0.6 2 Este 6 Sudeste 0 -- -- 96
2020-01-13 23:00:00 1.3 3 Sudeste 6 Este 0 -- -- 95
2020-01-13 22:00:00 1.9 3 Sudeste 8 Este 0 -- -- 95
2020-01-13 21:00:00 3.3 0 Calma 7 Oeste 0 -- -- 92
2020-01-13 20:00:00 4.8 0 Calma 5 Nordeste 0 -- -- 84
2020-01-13 19:00:00 8.6 4 Nordeste 7 Sudoeste 0 -- -- 71
2020-01-13 18:00:00 13.4 4 Sudoeste 12 Sudoeste 0 -- -- 54
2020-01-13 17:00:00 14.2 9 Oeste 17 Oeste 0 -- -- 51
2020-01-13 16:00:00 13.8 9 Noroeste 21 Oeste 0 -- -- 55
2020-01-13 15:00:00 14.2 9 Sudoeste 19 Oeste 0 -- -- 50
2020-01-13 14:00:00 13.8 7 Sudoeste 19 Sudoeste 0 -- -- 54
2020-01-13 13:00:00 13.5 7 Sudoeste 18 Sudoeste 0 -- -- 57
2020-01-13 12:00:00 10.7 0 Calma 5 Sur 0 -- -- 69
2020-01-13 11:00:00 5.2 2 Sur 5 Este 0.2 -- -- 97
2020-01-13 10:00:00 0 2 Sudeste 3 Sudeste 0 -- -- 100
2020-01-13 09:00:00 -1.6 3 Sudeste 4 Sudeste 0 -- -- 99
2020-01-13 08:00:00 -1.8 3 Este 6 Este 0 -- -- 98
2020-01-13 07:00:00 -1.7 3 Este 5 Sudeste 0 -- -- 97
2020-01-13 06:00:00 -0.5 3 Este 6 Este 0 -- -- 99
2020-01-13 05:00:00 -1.4 4 Sudeste 6 Sudeste 0 -- -- 98
2020-01-13 04:00:00 -0.8 3 Sudeste 6 Este 0 -- -- 98
2020-01-13 03:00:00 -0.3 3 Sudeste 8 Sudeste 0 -- -- 97
2020-01-13 02:00:00 -0.5 3 Este 5 Este 0 -- -- 96
2020-01-13 01:00:00 0.3 4 Este 6 Este 0 -- -- 96
2020-01-13 00:00:00 0.7 3 Sudeste 5 Este 0 -- -- 95
2020-01-12 23:00:00 0.9 3 Sudeste 5 Sudeste 0 -- -- 93
2020-01-12 22:00:00 1.6 0 Calma 4 Este 0 -- -- 91
2020-01-12 21:00:00 3.3 2 Este 6 Sudeste 0 -- -- 86
2020-01-12 20:00:00 5.3 5 Este 7 Este 0 -- -- 79
2020-01-12 19:00:00 9.5 3 Nordeste 10 Noroeste 0 -- -- 65
2020-01-12 18:00:00 13.7 5 Noroeste 16 Noroeste 0 -- -- 50
2020-01-12 17:00:00 14.8 6 Noroeste 17 Noroeste 0 -- -- 43
2020-01-12 16:00:00 15 11 Noroeste 21 Noroeste 0 -- -- 41
2020-01-12 15:00:00 15.7 9 Oeste 18 Oeste 0 -- -- 43
2020-01-12 14:00:00 15.2 7 Sudoeste 13 Oeste 0 -- -- 49
2020-01-12 13:00:00 14.4 4 Sudoeste 9 Sudoeste 0 -- -- 46
2020-01-12 12:00:00 11.5 0 Calma 3 Este 0 -- -- 62
2020-01-12 11:00:00 7.3 3 Este 4 Este 0 -- -- 81
2020-01-12 10:00:00 2.1 3 Sudeste 6 Este 0 -- -- 98
2020-01-12 09:00:00 -1 4 Sudeste 6 Sudeste 0 -- -- 97
2020-01-12 08:00:00 -0.6 2 Este 6 Nordeste 0 -- -- 98
2020-01-12 07:00:00 -1.2 3 Este 5 Sudeste 0 -- -- 96
2020-01-12 06:00:00 -0.5 3 Este 5 Este 0 -- -- 97
2020-01-12 05:00:00 -0.1 3 Este 5 Sudeste 0 -- -- 96
2020-01-12 04:00:00 0.6 3 Este 6 Sudeste 0 -- -- 97
2020-01-12 03:00:00 0.9 4 Este 8 Sudeste 0 -- -- 96
2020-01-12 02:00:00 1 3 Este 8 Sudeste 0 -- -- 94
2020-01-12 01:00:00 0.9 3 Sudeste 5 Sudeste 0 -- -- 93
2020-01-12 00:00:00 2 4 Este 6 Este 0 -- -- 92
2020-01-11 23:00:00 1.8 3 Sudeste 6 Sudeste 0 -- -- 89
2020-01-11 22:00:00 3.1 3 Sudeste 9 Sudeste 0 -- -- 86
2020-01-11 21:00:00 4.4 4 Sudeste 6 Sudeste 0 -- -- 78
2020-01-11 20:00:00 7.2 2 Este 7 Este 0 -- -- 71
2020-01-11 19:00:00 10.2 4 Nordeste 13 Norte 0 -- -- 66
2020-01-11 18:00:00 15.2 2 Este 14 Este 0 -- -- 44
2020-01-11 17:00:00 16 6 Este 14 Este 0 -- -- 39
2020-01-11 16:00:00 16.3 6 Este 14 Este 0 -- -- 38
2020-01-11 15:00:00 15.8 6 Este 14 Norte 0 -- -- 40
2020-01-11 14:00:00 14.8 6 Este 16 Norte 0 -- -- 46
2020-01-11 13:00:00 13.5 6 Norte 18 Nordeste 0 -- -- 48
2020-01-11 12:00:00 11.7 10 Norte 15 Norte 0 -- -- 53
2020-01-11 11:00:00 9.6 6 Sur 15 Sur 0 -- -- 63
2020-01-11 10:00:00 5.7 4 Este 13 Sudeste 0 -- -- 79
2020-01-11 09:00:00 0.1 0 Calma 8 Sur 0 -- -- 97
2020-01-11 08:00:00 -0.6 2 Sudoeste 6 Nordeste 0 -- -- 97
2020-01-11 07:00:00 -0.6 0 Calma 5 Sur 0 -- -- 98
2020-01-11 06:00:00 -0.2 0 Calma 3 Sur 0 -- -- 98
2020-01-11 05:00:00 -0.5 0 Calma 8 Sur 0 -- -- 99
2020-01-11 04:00:00 -0.1 4 Sur 9 Nordeste 0 -- -- 98
2020-01-11 03:00:00 0.2 2 Este 5 Nordeste 0 -- -- 99
2020-01-11 02:00:00 -0.6 0 Calma 5 Sur 0 -- -- 97
2020-01-11 01:00:00 0.9 0 Calma 6 Sur 0 -- -- 96
2020-01-11 00:00:00 2.3 3 Este 11 Este 0 -- -- 96
2020-01-10 23:00:00 2.5 0 Calma 5 Sudeste 0 -- -- 92
2020-01-10 22:00:00 4.4 3 Nordeste 6 Este 0 -- -- 89
2020-01-10 21:00:00 6.4 3 Nordeste 12 Norte 0 -- -- 83
2020-01-10 20:00:00 7.8 10 Norte 20 Nordeste 0 -- -- 79
2020-01-10 19:00:00 10.3 10 Norte 19 Norte 0 -- -- 68
2020-01-10 18:00:00 12.5 8 Nordeste 19 Norte 0 -- -- 60
2020-01-10 17:00:00 13.5 5 Norte 22 Nordeste 0 -- -- 59
2020-01-10 16:00:00 13 12 Nordeste 22 Nordeste 0 -- -- 54
2020-01-10 15:00:00 12.4 14 Nordeste 25 Nordeste 0 -- -- 59
2020-01-10 14:00:00 11.7 7 Norte 22 Norte 0 -- -- 61
2020-01-10 13:00:00 10.3 11 Norte 22 Norte 0 -- -- 67
2020-01-10 12:00:00 9.7 14 Nordeste 25 Nordeste 0 -- -- 65
2020-01-10 11:00:00 8.8 5 Norte 20 Nordeste 0 -- -- 69
2020-01-10 10:00:00 5.1 3 Sudoeste 8 Norte 0 -- -- 96
2020-01-10 09:00:00 2.5 2 Sudoeste 5 Sur 0 -- -- 96
2020-01-10 08:00:00 3.5 2 Sudoeste 5 Oeste 0 -- -- 94
2020-01-10 07:00:00 6.2 0 Calma 12 Noroeste 0 -- -- 90
2020-01-10 06:00:00 7.2 5 Noroeste 15 Noroeste 0 -- -- 88
2020-01-10 05:00:00 7.6 7 Noroeste 19 Noroeste 0 -- -- 91
2020-01-10 04:00:00 8.4 10 Noroeste 27 Noroeste 0 -- -- 89
2020-01-10 03:00:00 9.5 12 Noroeste 26 Noroeste 0 -- -- 90
2020-01-10 02:00:00 10 15 Noroeste 26 Norte 0 -- -- 91
2020-01-10 01:00:00 10.9 7 Noroeste 18 Noroeste 0 -- -- 93
2020-01-10 00:00:00 8.3 4 Oeste 11 Noroeste 0 -- -- 96
2020-01-09 23:00:00 7.8 0 Calma 6 Noroeste 0 -- -- 94
2020-01-09 22:00:00 7.6 3 Sur 5 Sudoeste 0 -- -- 93
2020-01-09 21:00:00 6.9 4 Este 7 Sudeste 0 -- -- 92
2020-01-09 20:00:00 7.2 2 Nordeste 5 Norte 0 -- -- 90
2020-01-09 19:00:00 10.5 2 Norte 21 Noroeste 0 -- -- 74
2020-01-09 18:00:00 13 10 Noroeste 19 Noroeste 0 -- -- 67
2020-01-09 17:00:00 14.4 9 Noroeste 21 Noroeste 0 -- -- 62
2020-01-09 16:00:00 15.1 14 Noroeste 22 Noroeste 0 -- -- 57
2020-01-09 15:00:00 14.9 10 Sudoeste 20 Oeste 0 -- -- 63
2020-01-09 14:00:00 13.8 11 Oeste 19 Oeste 0 -- -- 71
2020-01-09 13:00:00 12.8 9 Oeste 16 Oeste 0 -- -- 72
2020-01-09 12:00:00 10.5 2 Sudoeste 6 Oeste 0 -- -- 80
2020-01-09 11:00:00 6.3 2 Norte 4 Sudeste 0 -- -- 98
2020-01-09 10:00:00 1.2 2 Este 3 Sur 0.2 -- -- 100
2020-01-09 09:00:00 -1.2 0 Calma 5 Sudeste 0 -- -- 99
2020-01-09 08:00:00 -1.3 2 Este 7 Sudeste 0 -- -- 99
2020-01-09 07:00:00 -1.3 0 Calma 2 Este 0 -- -- 99
2020-01-09 06:00:00 -1.5 0 Calma 5 Sur 0 -- -- 99
2020-01-09 05:00:00 -0.9 0 Calma 6 Sudeste 0 -- -- 98
2020-01-09 04:00:00 -0.3 0 Calma 7 Este 0 -- -- 98
2020-01-09 03:00:00 -0.5 3 Este 5 Nordeste 0 -- -- 99
2020-01-09 02:00:00 -0.2 0 Calma 5 Este 0 -- -- 98
2020-01-09 01:00:00 -0.2 0 Calma 3 Nordeste 0 -- -- 96
2020-01-09 00:00:00 0.5 0 Calma 3 Sudeste 0 -- -- 95
2020-01-08 23:00:00 1.7 0 Calma 3 Noroeste 0 -- -- 94
2020-01-08 22:00:00 3.2 0 Calma 4 Sudeste 0 -- -- 92
2020-01-08 21:00:00 4.7 3 Este 4 Este 0 -- -- 90
2020-01-08 20:00:00 6.7 0 Calma 8 Nordeste 0 -- -- 82
2020-01-08 19:00:00 10.3 5 Nordeste 8 Oeste 0 -- -- 70
2020-01-08 18:00:00 16.7 4 Noroeste 10 Oeste 0 -- -- 42
2020-01-08 17:00:00 17.8 6 Oeste 13 Oeste 0 -- -- 45
2020-01-08 16:00:00 17.7 6 Oeste 14 Oeste 0 -- -- 55
2020-01-08 15:00:00 16.8 9 Oeste 13 Sudoeste 0 -- -- 54
2020-01-08 14:00:00 15.8 7 Oeste 12 Oeste 0 -- -- 52
2020-01-08 13:00:00 14.1 6 Oeste 12 Oeste 0 -- -- 51
2020-01-08 12:00:00 11.1 2 Sudoeste 4 Sur 0 -- -- 60
2020-01-08 11:00:00 5.9 0 Calma 4 Este 0 -- -- 97
2020-01-08 10:00:00 1.4 2 Este 6 Este 0 -- -- 100
2020-01-08 09:00:00 -1.9 0 Calma 3 Sudeste 0 -- -- 99
2020-01-08 08:00:00 -1.7 3 Nordeste 4 Nordeste 0 -- -- 98
2020-01-08 07:00:00 -1 2 Este 4 Este 0 -- -- 98
2020-01-08 06:00:00 -0.5 2 Este 3 Sudeste 0 -- -- 99
2020-01-08 05:00:00 0 3 Sudeste 4 Este 0 -- -- 99
2020-01-08 04:00:00 0.1 2 Este 3 Este 0 -- -- 98
2020-01-08 03:00:00 0.6 0 Calma 3 Sur 0 -- -- 97
2020-01-08 02:00:00 1.1 0 Calma 5 Este 0 -- -- 98
2020-01-08 01:00:00 1.7 3 Nordeste 5 Este 0 -- -- 96
2020-01-08 00:00:00 2.4 3 Este 5 Este 0 -- -- 96
2020-01-07 23:00:00 3.4 0 Calma 6 Sudeste 0 -- -- 92
2020-01-07 22:00:00 4.5 3 Sudeste 5 Sudeste 0 -- -- 91
2020-01-07 21:00:00 6 2 Nordeste 7 Nordeste 0 -- -- 87
2020-01-07 20:00:00 8.7 3 Este 10 Nordeste 0 -- -- 76
2020-01-07 19:00:00 12.2 5 Norte 13 Norte 0 -- -- 64
2020-01-07 18:00:00 16.5 6 Norte 9 Norte 0 -- -- 47
2020-01-07 17:00:00 18.4 5 Nordeste 16 Nordeste 0 -- -- 38
2020-01-07 16:00:00 18.7 6 Nordeste 15 Oeste 0 -- -- 38
2020-01-07 15:00:00 18.1 9 Oeste 14 Oeste 0 -- -- 54
2020-01-07 14:00:00 17 11 Oeste 15 Oeste 0 -- -- 60
2020-01-07 13:00:00 14.9 6 Oeste 11 Noroeste 0 -- -- 60
2020-01-07 12:00:00 11.6 0 Calma 3 Norte 0 -- -- 76
2020-01-07 11:00:00 7.3 0 Calma 5 Sudeste 0 -- -- 98
2020-01-07 10:00:00 3.1 3 Este 5 Sudeste 0 -- -- 100
2020-01-07 09:00:00 0.1 4 Sudeste 5 Sudeste 0 -- -- 100
2020-01-07 08:00:00 -0.6 0 Calma 5 Sudeste 0 -- -- 99
2020-01-07 07:00:00 -0.7 0 Calma 6 Sudeste 0 -- -- 99
2020-01-07 06:00:00 0.3 2 Sudeste 5 Este 0 -- -- 99
2020-01-07 05:00:00 -0.2 2 Sudeste 5 Sudeste 0 -- -- 99
2020-01-07 04:00:00 0 0 Calma 4 Sudeste 0 -- -- 99
2020-01-07 03:00:00 0.9 0 Calma 6 Sudeste 0 -- -- 98
2020-01-07 02:00:00 2 3 Nordeste 5 Este 0 -- -- 97
2020-01-07 01:00:00 2.8 3 Nordeste 6 Sudeste 0 -- -- 99
2020-01-07 00:00:00 3.4 3 Sudeste 6 Sudeste 0 -- -- 98
2020-01-06 23:00:00 4.3 0 Calma 5 Sudeste 0 -- -- 97
2020-01-06 22:00:00 5.4 0 Calma 10 Este 0 -- -- 95
2020-01-06 21:00:00 6.5 3 Sudeste 8 Nordeste 0 -- -- 89
2020-01-06 20:00:00 9.4 0 Calma 13 Norte 0 -- -- 81
2020-01-06 19:00:00 12.1 0 Calma 9 Noroeste 0 -- -- 75
2020-01-06 18:00:00 15.1 4 Oeste 20 Oeste 0 -- -- 62
2020-01-06 17:00:00 17.2 11 Oeste 16 Oeste 0 -- -- 59
2020-01-06 16:00:00 17.9 5 Noroeste 10 Oeste 0 -- -- 53
2020-01-06 15:00:00 17.4 2 Sudoeste 8 Oeste 0 -- -- 54
2020-01-06 14:00:00 15.9 4 Sudoeste 10 Noroeste 0 -- -- 62
2020-01-06 13:00:00 13.7 3 Sudoeste 8 Noroeste 0 -- -- 73
2020-01-06 12:00:00 10.4 0 Calma 4 Noroeste 0 -- -- 86
2020-01-06 11:00:00 6.6 0 Calma 3 Noroeste 0 -- -- 100
2020-01-06 10:00:00 2.2 0 Calma 4 Este 0 -- -- 100